메인 페이지
METAR-TAF:

METAR-TAF

공항 :

Bandırma, 터키

위도: 40-19N, 경도: 027-58E, 고도: 51m

현재 날씨관측

예보는 17 시간 40분 전, 22:21시(UTC)에 발표되었습니다.
북북동16kt
온도 16°C
습도 88%
기압 1023 hPa
시정 10km 이상
고도 3500ft 상공 구름 보통
고도 10000ft 상공 구름 많음
약한소나기

METAR: LTBG 202221Z 03016KT 9999 -SHRA SCT035 BKN100 16/14 Q1023 NOSIG RMK RWY18 05016G26KT

시각: 19:01 (16:01 UTC)

예보

예보는 2 시간 21분 전, 13:40시(UTC)에 발표되었습니다.
예보 대상 시간: 21일 15시부터 21일 24시까지 (UTC)
북북동17kt, 순간 최대 풍속 27kt
시정 10km 이상
고도 3500ft 상공 구름 조금

TAF: LTBG 211340Z 2115/2124 03017G27KT 9999 FEW035

4,000개 이상의 공항 관측 자료 및 예보 (METAR 및 TAF 보고).

지도상에서 검색 가능한 기상관측소가 노란 점과 빨간 점으로 표시되어 있습니다.

기상관측소 명을 보려면 표시 위로 마우스를 이동하세요.

날씨 관측과 예보를 보려면 클릭하세요.

지도 변경 : 확대하려면 엑스 표시가 있는 녹색 버튼, 축소하려면 빼기 표시가 있는 녹색 버튼, 다음 페이지의 지도를 보려면 녹색 화살표를 클릭하세요.


METAR-TAF: